Time;durP1;ratioP1;P1;durP2;ratioP2;P2;SDS_P1;SDS_P2;PMS_P1;PMS_P2;Temp;Humidity;BMP_temperature;BMP_pressure;BME280_temperature;BME280_humidity;BME280_pressure;Samples;Min_cycle;Max_cycle;Signal;HPM_P1;HPM_P2
2022/12/13 00:01:45;;;;;;;6.15;4.13;;;7.20;96.70;;;;;;5081680;28;20632;-77
2022/12/13 00:04:14;;;;;;;6.97;4.30;;;7.20;96.70;;;;;;5067304;28;21378;-77
2022/12/13 00:06:42;;;;;;;6.13;4.45;;;7.20;96.70;;;;;;5086570;28;20039;-78
2022/12/13 00:09:14;;;;;;;8.88;5.07;;;7.20;96.70;;;;;;5087506;28;20036;-78
2022/12/13 00:11:44;;;;;;;5.47;4.50;;;7.10;96.70;;;;;;5068881;28;20048;-77
2022/12/13 00:14:13;;;;;;;7.03;4.60;;;7.10;96.70;;;;;;5085189;28;20048;-77
2022/12/13 00:16:45;;;;;;;5.95;4.70;;;7.00;96.70;;;;;;5085884;28;20436;-78
2022/12/13 00:19:14;;;;;;;7.13;5.03;;;7.00;96.70;;;;;;5086048;28;20533;-78
2022/12/13 00:21:42;;;;;;;7.40;4.63;;;7.00;96.70;;;;;;5087523;28;20060;-78
2022/12/13 00:24:11;;;;;;;6.07;4.47;;;7.00;96.70;;;;;;5087310;28;20083;-78
2022/12/13 00:26:40;;;;;;;7.53;4.65;;;7.00;96.70;;;;;;5085354;28;20501;-78
2022/12/13 00:29:10;;;;;;;7.43;5.10;;;7.00;96.70;;;;;;5077706;28;20046;-77
2022/12/13 00:31:38;;;;;;;6.82;5.18;;;7.10;96.70;;;;;;5087533;28;20040;-78
2022/12/13 00:34:26;;;;;;;7.00;4.75;;;7.10;96.70;;;;;;5085367;28;20040;-77
2022/12/13 00:36:54;;;;;;;8.18;5.20;;;7.10;96.70;;;;;;5085168;28;20584;-79
2022/12/13 00:39:23;;;;;;;6.07;4.65;;;7.10;96.70;;;;;;5085783;28;20056;-78
2022/12/13 00:41:52;;;;;;;8.05;4.70;;;7.00;96.70;;;;;;5079736;28;20498;-77
2022/12/13 00:44:20;;;;;;;8.35;5.25;;;7.00;96.70;;;;;;5085509;28;20078;-78
2022/12/13 00:46:50;;;;;;;8.77;5.70;;;7.00;96.70;;;;;;5084670;28;20044;-78
2022/12/13 00:49:19;;;;;;;8.32;5.47;;;7.00;96.70;;;;;;5086785;28;20099;-78
2022/12/13 00:51:48;;;;;;;5.68;4.85;;;6.90;96.70;;;;;;5068972;28;20513;-78
2022/12/13 00:54:16;;;;;;;6.40;4.57;;;6.90;96.70;;;;;;5086336;28;20043;-78
2022/12/13 00:56:44;;;;;;;7.10;4.80;;;7.00;96.70;;;;;;5084966;28;20143;-78
2022/12/13 00:59:14;;;;;;;6.90;5.00;;;7.00;96.70;;;;;;5084289;28;20075;-77
2022/12/13 01:01:42;;;;;;;6.80;4.80;;;7.10;96.70;;;;;;5086048;28;20044;-78
2022/12/13 01:04:11;;;;;;;8.27;5.55;;;7.10;96.70;;;;;;5084050;28;20048;-79
2022/12/13 01:06:41;;;;;;;8.40;5.10;;;6.90;96.70;;;;;;5100808;28;20052;-79
2022/12/13 01:09:16;;;;;;;7.13;4.70;;;7.00;96.70;;;;;;5085399;28;20496;-78
2022/12/13 01:11:44;;;;;;;6.55;5.05;;;7.00;96.70;;;;;;5085859;28;20059;-78
2022/12/13 01:14:14;;;;;;;7.38;5.25;;;7.00;96.70;;;;;;5083087;28;20117;-78
2022/12/13 01:16:45;;;;;;;7.13;5.00;;;7.00;96.70;;;;;;5076334;28;20097;-75
2022/12/13 01:19:15;;;;;;;7.15;5.07;;;7.00;96.70;;;;;;5084540;28;20051;-75
2022/12/13 01:21:43;;;;;;;6.50;4.65;;;7.00;96.70;;;;;;5085303;28;20052;-75
2022/12/13 01:24:11;;;;;;;7.30;5.22;;;7.00;96.70;;;;;;5083499;28;20048;-75
2022/12/13 01:26:38;;;;;;;7.72;5.18;;;6.90;96.70;;;;;;5083189;28;20534;-76
2022/12/13 01:29:07;;;;;;;6.93;5.30;;;6.90;96.70;;;;;;5084356;28;20044;-74
2022/12/13 01:31:40;;;;;;;8.02;5.35;;;6.90;96.70;;;;;;5084652;28;20055;-74
2022/12/13 01:34:09;;;;;;;7.18;5.05;;;6.90;96.70;;;;;;5083388;28;20125;-75
2022/12/13 01:36:39;;;;;;;7.65;6.10;;;6.80;96.70;;;;;;5083240;28;20051;-75
2022/12/13 01:39:08;;;;;;;7.40;5.22;;;6.80;96.70;;;;;;5084939;28;20093;-74
2022/12/13 01:41:43;;;;;;;8.40;5.68;;;6.80;96.70;;;;;;5083615;28;20098;-75
2022/12/13 01:44:48;;;;;;;9.02;6.18;;;6.80;96.70;;;;;;5084746;28;20052;-75
2022/12/13 01:47:23;;;;;;;8.02;6.55;;;6.70;96.70;;;;;;5082724;28;20521;-75
2022/12/13 01:49:53;;;;;;;9.43;6.88;;;6.70;96.70;;;;;;5083894;28;20051;-75
2022/12/13 01:52:22;;;;;;;7.68;6.00;;;6.60;96.70;;;;;;5084160;28;20055;-75
2022/12/13 01:54:54;;;;;;;7.88;6.05;;;6.60;96.70;;;;;;5082797;28;20051;-75
2022/12/13 01:57:32;;;;;;;8.77;6.32;;;6.60;96.70;;;;;;5082710;28;20043;-75
2022/12/13 02:00:01;;;;;;;9.07;6.25;;;6.60;96.70;;;;;;5077700;28;20036;-75
2022/12/13 02:02:35;;;;;;;8.27;5.85;;;6.60;96.70;;;;;;5083033;28;20500;-76
2022/12/13 02:05:10;;;;;;;9.23;6.20;;;6.60;96.70;;;;;;5083492;28;20366;-75
2022/12/13 02:07:40;;;;;;;9.90;6.72;;;6.60;96.70;;;;;;5083020;28;20101;-75
2022/12/13 02:10:10;;;;;;;8.73;6.38;;;6.60;96.70;;;;;;5085044;28;20089;-75
2022/12/13 02:12:40;;;;;;;6.75;5.72;;;6.60;96.70;;;;;;5083193;28;20055;-75
2022/12/13 02:15:12;;;;;;;7.88;5.80;;;6.70;96.70;;;;;;5084453;28;20052;-75
2022/12/13 02:18:10;;;;;;;8.93;5.78;;;6.80;96.70;;;;;;5082675;28;20130;-75
2022/12/13 02:21:07;;;;;;;8.13;6.15;;;6.90;96.70;;;;;;5080894;28;20453;-75
2022/12/13 02:24:21;;;;;;;7.80;6.27;;;6.80;96.70;;;;;;5059894;28;20456;-75
2022/12/13 02:27:09;;;;;;;7.72;5.95;;;6.80;96.70;;;;;;5083509;28;20036;-74
2022/12/13 02:30:14;;;;;;;6.95;6.05;;;6.80;96.70;;;;;;5084417;28;20456;-75
2022/12/13 02:32:56;;;;;;;10.77;5.90;;;6.90;96.70;;;;;;5083502;28;20537;-74
2022/12/13 02:35:31;;;;;;;8.13;5.90;;;6.90;96.70;;;;;;5083081;28;20047;-76
2022/12/13 02:38:05;;;;;;;8.32;5.57;;;6.90;96.70;;;;;;5082626;28;20052;-75
2022/12/13 02:40:39;;;;;;;8.68;6.57;;;6.80;96.70;;;;;;5082016;28;20063;-74
2022/12/13 02:43:12;;;;;;;7.53;5.45;;;6.80;96.70;;;;;;5082061;28;20044;-74
2022/12/13 02:45:46;;;;;;;7.40;5.68;;;6.80;96.70;;;;;;5082221;28;20508;-75
2022/12/13 02:48:20;;;;;;;8.50;6.22;;;6.80;96.70;;;;;;5082353;28;20131;-75
2022/12/13 02:50:50;;;;;;;8.93;6.25;;;6.90;96.70;;;;;;5075189;28;20072;-75
2022/12/13 02:53:22;;;;;;;7.13;5.63;;;6.90;96.70;;;;;;5081892;28;20040;-75
2022/12/13 02:55:51;;;;;;;7.53;5.93;;;7.00;96.70;;;;;;5082605;28;20044;-74
2022/12/13 02:58:23;;;;;;;6.15;5.32;;;7.00;96.70;;;;;;5082838;28;20050;-75
2022/12/13 03:00:57;;;;;;;9.82;6.15;;;7.00;96.70;;;;;;5092731;28;20048;-74
2022/12/13 03:03:38;;;;;;;7.88;5.72;;;6.90;96.70;;;;;;5082912;28;20447;-75
2022/12/13 03:06:29;;;;;;;8.90;5.75;;;6.90;96.70;;;;;;5078596;28;20494;-75
2022/12/13 03:09:15;;;;;;;7.43;5.50;;;6.90;96.70;;;;;;5079474;28;20120;-75
2022/12/13 03:14:55;;;;;;;6.70;4.80;;;7.00;96.70;;;;;;5076968;28;20056;-75
2022/12/13 03:17:26;;;;;;;7.18;4.78;;;7.00;96.70;;;;;;5083285;28;20051;-75
2022/12/13 03:19:58;;;;;;;5.90;4.60;;;6.90;96.70;;;;;;5065138;28;20397;-75
2022/12/13 03:22:51;;;;;;;5.95;4.32;;;6.90;96.70;;;;;;5078031;28;20043;-77
2022/12/13 03:25:26;;;;;;;5.82;4.10;;;6.90;96.70;;;;;;5085158;28;20064;-77
2022/12/13 03:28:00;;;;;;;5.45;4.43;;;6.80;96.70;;;;;;5083820;28;20451;-79
2022/12/13 03:30:31;;;;;;;6.43;4.30;;;6.70;96.70;;;;;;5074275;28;20048;-76
2022/12/13 03:33:00;;;;;;;6.50;4.30;;;6.60;96.70;;;;;;5084159;28;20052;-77
2022/12/13 03:35:30;;;;;;;5.50;3.78;;;6.60;96.70;;;;;;5083672;28;20727;-77
2022/12/13 03:38:11;;;;;;;7.55;4.38;;;6.70;96.70;;;;;;5082228;28;20044;-79
2022/12/13 03:40:51;;;;;;;7.10;3.95;;;6.80;96.70;;;;;;5081647;28;20044;-78
2022/12/13 03:43:20;;;;;;;5.47;3.50;;;6.80;96.70;;;;;;5081396;28;20036;-78
2022/12/13 03:45:50;;;;;;;4.63;3.50;;;6.90;96.70;;;;;;5081244;28;20075;-78
2022/12/13 03:48:19;;;;;;;4.57;3.63;;;6.90;96.70;;;;;;5064952;28;20093;-77
2022/12/13 03:50:53;;;;;;;5.15;3.30;;;6.90;96.70;;;;;;5081552;28;20117;-78
2022/12/13 03:53:22;;;;;;;4.57;3.97;;;6.90;96.70;;;;;;5081179;28;20048;-77
2022/12/13 03:56:01;;;;;;;5.63;3.75;;;6.90;96.70;;;;;;5082375;28;20039;-78
2022/12/13 03:58:30;;;;;;;5.28;3.78;;;7.00;96.70;;;;;;5080621;28;20032;-78
2022/12/13 04:01:05;;;;;;;5.13;3.80;;;7.00;96.70;;;;;;5080944;28;20151;-78
2022/12/13 04:03:33;;;;;;;5.15;3.70;;;7.00;96.70;;;;;;5064543;28;20543;-78
2022/12/13 04:06:04;;;;;;;5.93;3.40;;;7.00;96.70;;;;;;5082767;28;20119;-78
2022/12/13 04:08:33;;;;;;;6.85;4.25;;;7.00;96.70;;;;;;5080975;28;20573;-78
2022/12/13 04:13:48;;;;;;;5.00;3.55;;;6.90;96.70;;;;;;5075586;28;20139;-75
2022/12/13 04:16:16;;;;;;;4.88;3.47;;;7.00;96.70;;;;;;5079172;28;20058;-76
2022/12/13 04:18:45;;;;;;;6.32;4.07;;;7.00;96.70;;;;;;5076641;28;20071;-76
2022/12/13 04:21:15;;;;;;;5.32;3.90;;;7.00;96.70;;;;;;5079180;28;20138;-76
2022/12/13 04:23:43;;;;;;;5.50;3.65;;;7.00;96.70;;;;;;5080141;28;20133;-75
2022/12/13 04:26:12;;;;;;;4.47;3.60;;;7.00;96.70;;;;;;5064320;28;20040;-75
2022/12/13 04:28:40;;;;;;;4.72;3.78;;;6.90;96.70;;;;;;5080809;28;20044;-76
2022/12/13 04:31:08;;;;;;;6.55;3.45;;;7.00;96.70;;;;;;5079815;28;20145;-75
2022/12/13 04:33:37;;;;;;;4.82;3.60;;;7.00;96.70;;;;;;5063475;28;20048;-76
2022/12/13 04:36:06;;;;;;;5.47;4.28;;;7.00;96.70;;;;;;5080018;28;20222;-75
2022/12/13 04:38:35;;;;;;;8.38;3.83;;;6.80;96.70;;;;;;5080076;28;20043;-75
2022/12/13 04:41:06;;;;;;;4.30;3.38;;;6.90;96.70;;;;;;5081228;28;20090;-75
2022/12/13 04:43:34;;;;;;;5.88;3.20;;;7.00;96.70;;;;;;5081591;28;20101;-77
2022/12/13 04:46:02;;;;;;;4.13;3.40;;;7.00;96.70;;;;;;5081780;28;20048;-78
2022/12/13 04:48:32;;;;;;;5.53;3.60;;;6.90;96.70;;;;;;5082966;28;20048;-78
2022/12/13 04:51:01;;;;;;;4.53;3.55;;;7.00;96.70;;;;;;5084217;28;20119;-78
2022/12/13 04:53:30;;;;;;;5.47;3.17;;;7.00;96.70;;;;;;5084908;28;20465;-77
2022/12/13 04:56:02;;;;;;;3.67;3.10;;;7.00;96.70;;;;;;5084444;28;20070;-79
2022/12/13 04:58:30;;;;;;;4.30;3.22;;;7.00;96.70;;;;;;5084519;28;20070;-77
2022/12/13 05:00:58;;;;;;;4.13;3.30;;;7.00;96.70;;;;;;5084002;28;20032;-77
2022/12/13 05:03:28;;;;;;;4.88;3.10;;;7.10;96.70;;;;;;5077849;28;20044;-78
2022/12/13 05:05:56;;;;;;;13.73;8.73;;;7.00;96.70;;;;;;5083911;28;20048;-78
2022/12/13 05:08:24;;;;;;;8.77;5.60;;;6.80;96.70;;;;;;5100800;28;20052;-79
2022/12/13 05:10:54;;;;;;;14.77;9.10;;;6.90;96.70;;;;;;5085822;28;20036;-77
2022/12/13 05:13:24;;;;;;;11.07;7.88;;;6.80;96.70;;;;;;5084853;28;20048;-78
2022/12/13 05:15:56;;;;;;;8.65;6.10;;;6.80;96.70;;;;;;5085867;28;20048;-77
2022/12/13 05:18:25;;;;;;;8.68;5.68;;;6.60;96.70;;;;;;5084540;28;20052;-78
2022/12/13 05:20:54;;;;;;;7.68;4.72;;;6.60;96.70;;;;;;5084128;28;20493;-78
2022/12/13 05:23:23;;;;;;;6.68;4.20;;;6.70;96.70;;;;;;5086114;28;20040;-78
2022/12/13 05:25:52;;;;;;;5.38;3.53;;;6.80;96.70;;;;;;5084980;28;20051;-78
2022/12/13 05:28:24;;;;;;;4.05;2.75;;;6.60;96.70;;;;;;5067984;28;20044;-78
2022/12/13 05:31:18;;;;;;;4.80;3.10;;;6.60;96.70;;;;;;5083608;28;20047;-77
2022/12/13 05:33:51;;;;;;;5.18;2.85;;;6.50;96.70;;;;;;5004309;28;20092;-77
2022/12/13 05:36:21;;;;;;;4.13;2.97;;;6.60;96.70;;;;;;4996822;28;20054;-77
2022/12/13 05:38:49;;;;;;;3.92;2.78;;;6.70;96.70;;;;;;5004636;28;20071;-77
2022/12/13 05:41:22;;;;;;;5.80;3.45;;;6.70;96.70;;;;;;5005571;28;20048;-77
2022/12/13 05:43:50;;;;;;;6.72;4.43;;;6.70;96.70;;;;;;5021455;28;20057;-77
2022/12/13 05:46:20;;;;;;;5.68;4.05;;;6.70;96.70;;;;;;5005124;28;20057;-77
2022/12/13 05:48:48;;;;;;;4.38;3.33;;;6.70;96.70;;;;;;4988798;28;20060;-77
2022/12/13 05:51:16;;;;;;;5.55;3.70;;;6.80;96.70;;;;;;5005565;28;20045;-77
2022/12/13 05:53:46;;;;;;;6.20;3.10;;;6.90;96.70;;;;;;4988753;28;20060;-77
2022/12/13 05:56:19;;;;;;;4.15;3.00;;;6.90;96.70;;;;;;5021795;28;20052;-77
2022/12/13 05:58:50;;;;;;;3.88;3.00;;;6.90;96.70;;;;;;5020836;28;20111;-78
2022/12/13 06:01:23;;;;;;;4.22;3.15;;;6.90;96.70;;;;;;5005064;28;20046;-77
2022/12/13 06:03:51;;;;;;;6.47;3.40;;;6.90;96.70;;;;;;5019070;28;20063;-77
2022/12/13 06:06:20;;;;;;;4.65;3.60;;;6.90;96.70;;;;;;5084289;28;20113;-77
2022/12/13 06:08:48;;;;;;;4.57;3.15;;;6.80;96.70;;;;;;5084689;28;20061;-79
2022/12/13 06:11:17;;;;;;;5.53;3.20;;;6.80;96.70;;;;;;5082988;28;20117;-77
2022/12/13 06:13:59;;;;;;;3.67;2.80;;;6.80;96.70;;;;;;5077137;28;20855;-78
2022/12/13 06:16:30;;;;;;;4.13;2.97;;;6.70;96.70;;;;;;5084961;28;20498;-77
2022/12/13 06:18:59;;;;;;;3.80;2.50;;;6.70;96.70;;;;;;5082969;28;20117;-78
2022/12/13 06:21:32;;;;;;;3.70;2.53;;;6.70;96.70;;;;;;5083108;28;20056;-79
2022/12/13 06:24:16;;;;;;;3.70;2.65;;;6.70;96.70;;;;;;5082898;28;20052;-78
2022/12/13 06:26:45;;;;;;;4.05;2.78;;;6.80;96.70;;;;;;5082599;28;20075;-79
2022/12/13 06:29:13;;;;;;;4.18;2.50;;;6.70;96.70;;;;;;5082384;28;20089;-77
2022/12/13 06:31:58;;;;;;;3.60;2.53;;;6.80;96.70;;;;;;5064699;28;20059;-79
2022/12/13 06:34:31;;;;;;;3.85;2.60;;;6.90;96.70;;;;;;5065382;28;20456;-78
2022/12/13 06:37:01;;;;;;;4.50;2.55;;;6.90;96.70;;;;;;5062036;28;20083;-77
2022/12/13 06:39:29;;;;;;;4.63;2.92;;;6.90;96.70;;;;;;5080628;28;20117;-77
2022/12/13 06:42:07;;;;;;;3.97;2.67;;;6.90;96.70;;;;;;5082239;28;20052;-79
2022/12/13 06:44:35;;;;;;;4.68;2.78;;;6.90;96.70;;;;;;5099782;28;20143;-78
2022/12/13 06:47:06;;;;;;;4.05;2.63;;;6.90;96.70;;;;;;5084607;28;20040;-78
2022/12/13 06:49:41;;;;;;;3.42;2.53;;;6.90;96.70;;;;;;5083428;28;20541;-77
2022/12/13 06:52:13;;;;;;;3.83;2.63;;;6.90;96.70;;;;;;5082082;28;20039;-77
2022/12/13 06:54:42;;;;;;;4.25;2.53;;;7.00;96.70;;;;;;5083406;28;20044;-78
2022/12/13 06:57:11;;;;;;;3.83;2.53;;;7.00;96.70;;;;;;5082071;28;20036;-78
2022/12/13 06:59:40;;;;;;;3.55;2.70;;;7.00;96.70;;;;;;5082073;28;20074;-77
2022/12/13 07:02:11;;;;;;;5.25;3.03;;;7.00;96.70;;;;;;5082209;28;20050;-77
2022/12/13 07:04:53;;;;;;;4.13;2.90;;;7.00;96.70;;;;;;5075866;28;20455;-77
2022/12/13 07:07:23;;;;;;;6.60;3.28;;;7.00;96.70;;;;;;5081149;28;20051;-78
2022/12/13 07:09:51;;;;;;;4.60;2.97;;;7.00;96.70;;;;;;5082942;28;20060;-77
2022/12/13 07:12:20;;;;;;;4.78;3.45;;;6.90;96.70;;;;;;5061677;28;20048;-78
2022/12/13 07:14:48;;;;;;;5.15;3.72;;;7.00;96.70;;;;;;5080061;28;20056;-78
2022/12/13 07:17:18;;;;;;;4.88;3.47;;;7.00;96.70;;;;;;5081829;28;20058;-79
2022/12/13 07:20:06;;;;;;;4.78;3.30;;;6.90;96.70;;;;;;5082689;28;20070;-77
2022/12/13 07:22:36;;;;;;;4.45;3.20;;;6.90;96.70;;;;;;5082984;28;20050;-77
2022/12/13 07:25:14;;;;;;;5.65;3.53;;;7.00;96.70;;;;;;5073776;28;20596;-78
2022/12/13 07:28:00;;;;;;;5.55;3.55;;;7.00;96.70;;;;;;5082915;28;20075;-78
2022/12/13 07:30:32;;;;;;;4.63;3.60;;;7.10;96.70;;;;;;5082266;28;20090;-78
2022/12/13 07:33:02;;;;;;;4.47;3.10;;;7.20;96.70;;;;;;5064794;28;20098;-77
2022/12/13 07:35:31;;;;;;;4.53;3.35;;;7.20;96.70;;;;;;5080166;28;20089;-78
2022/12/13 07:38:05;;;;;;;5.93;3.90;;;7.20;96.70;;;;;;5056546;28;20055;-78
2022/12/13 07:40:34;;;;;;;4.60;3.53;;;7.20;96.70;;;;;;5078124;28;20040;-77
2022/12/13 07:43:03;;;;;;;5.30;3.58;;;7.10;96.70;;;;;;5098059;28;20494;-78
2022/12/13 07:45:31;;;;;;;7.55;4.38;;;7.00;96.70;;;;;;5080971;28;20699;-77
2022/12/13 07:48:05;;;;;;;5.75;4.18;;;7.10;96.70;;;;;;5081366;28;20547;-77
2022/12/13 07:50:33;;;;;;;6.63;4.18;;;7.00;96.70;;;;;;5082359;28;20044;-76
2022/12/13 07:53:05;;;;;;;5.05;3.65;;;7.00;96.70;;;;;;5082574;28;20040;-76
2022/12/13 07:55:34;;;;;;;4.45;3.20;;;7.10;96.70;;;;;;5081281;28;20048;-79
2022/12/13 07:58:04;;;;;;;5.20;3.55;;;7.10;96.70;;;;;;5074184;28;20054;-79
2022/12/13 08:00:32;;;;;;;5.82;3.50;;;7.10;96.70;;;;;;5064923;28;20062;-77
2022/12/13 08:03:01;;;;;;;4.18;3.03;;;7.20;96.70;;;;;;5081894;28;20039;-77
2022/12/13 08:05:31;;;;;;;4.30;3.13;;;7.20;96.70;;;;;;5081780;28;20050;-79
2022/12/13 08:08:06;;;;;;;;;;;7.20;96.70;;;;;;5082211;28;20040;-77
2022/12/13 08:10:35;;;;;;;4.30;3.10;;;7.30;96.70;;;;;;5064525;28;20425;-77
2022/12/13 08:13:04;;;;;;;4.38;2.78;;;7.40;96.70;;;;;;5081234;28;20533;-75
2022/12/13 08:15:32;;;;;;;4.50;3.55;;;7.40;96.70;;;;;;5080820;28;20748;-77
2022/12/13 08:18:00;;;;;;;4.80;3.38;;;7.40;96.70;;;;;;5081007;28;20044;-76
2022/12/13 08:20:30;;;;;;;5.43;2.92;;;7.40;96.70;;;;;;5081814;28;20627;-77
2022/12/13 08:22:59;;;;;;;4.03;2.90;;;7.40;96.70;;;;;;5072485;28;20680;-76
2022/12/13 08:25:30;;;;;;;3.58;2.83;;;7.40;96.70;;;;;;5083783;28;20568;-75
2022/12/13 08:27:58;;;;;;;4.38;3.20;;;7.40;96.70;;;;;;5084062;28;20067;-75
2022/12/13 08:30:31;;;;;;;4.43;3.28;;;7.40;96.70;;;;;;5085971;28;20040;-75
2022/12/13 08:32:59;;;;;;;4.50;3.40;;;7.40;96.70;;;;;;5083966;28;20090;-75
2022/12/13 08:35:33;;;;;;;4.15;2.88;;;7.40;96.70;;;;;;5077450;28;20044;-75
2022/12/13 08:38:02;;;;;;;5.63;3.33;;;7.50;96.70;;;;;;5083654;28;20516;-75
2022/12/13 08:40:30;;;;;;;5.35;3.67;;;7.50;96.70;;;;;;5064052;28;20045;-76
2022/12/13 08:42:59;;;;;;;4.55;3.45;;;7.60;96.70;;;;;;5081696;28;20138;-76
2022/12/13 08:45:27;;;;;;;4.93;3.55;;;7.70;96.70;;;;;;5083887;28;20064;-75
2022/12/13 08:47:58;;;;;;;5.63;3.85;;;7.60;96.70;;;;;;5075683;28;20509;-74
2022/12/13 08:50:28;;;;;;;4.68;3.40;;;7.70;96.70;;;;;;5085486;28;20528;-75
2022/12/13 08:52:58;;;;;;;5.13;3.45;;;7.70;96.70;;;;;;5083668;28;20048;-74
2022/12/13 08:55:26;;;;;;;3.92;3.20;;;7.80;96.70;;;;;;5084000;28;20055;-75
2022/12/13 08:58:07;;;;;;;5.38;4.20;;;7.80;96.70;;;;;;5084179;28;20040;-75
2022/12/13 09:00:36;;;;;;;5.80;4.32;;;7.90;96.70;;;;;;5083772;28;20058;-77
2022/12/13 09:03:05;;;;;;;6.45;4.93;;;7.90;96.70;;;;;;5087229;28;20039;-75
2022/12/13 09:05:37;;;;;;;5.35;4.13;;;8.00;96.70;;;;;;5085060;28;20071;-76
2022/12/13 09:08:10;;;;;;;5.72;4.30;;;8.00;96.70;;;;;;5083854;28;20051;-74
2022/12/13 09:10:58;;;;;;;4.22;3.50;;;8.10;96.70;;;;;;5078793;28;20052;-76
2022/12/13 09:13:28;;;;;;;4.60;3.75;;;8.10;96.70;;;;;;5083424;28;20056;-75
2022/12/13 09:16:02;;;;;;;5.50;3.22;;;8.10;96.70;;;;;;5082601;28;20036;-75
2022/12/13 09:18:31;;;;;;;3.97;3.55;;;8.10;96.70;;;;;;5085022;28;20071;-75
2022/12/13 09:21:07;;;;;;;3.35;2.85;;;8.20;96.70;;;;;;5084897;28;20044;-74
2022/12/13 09:23:41;;;;;;;6.85;3.80;;;8.20;96.70;;;;;;5085614;28;20048;-76
2022/12/13 09:26:15;;;;;;;4.60;4.13;;;8.20;96.70;;;;;;5067086;28;20143;-75
2022/12/13 09:28:43;;;;;;;5.93;3.83;;;8.10;96.70;;;;;;5082581;28;20052;-75
2022/12/13 09:31:14;;;;;;;3.58;3.20;;;8.10;96.70;;;;;;5075730;28;20040;-74
2022/12/13 09:33:43;;;;;;;3.72;2.90;;;8.20;96.70;;;;;;5080551;28;20039;-75
2022/12/13 09:36:15;;;;;;;3.83;2.13;;;8.20;96.70;;;;;;5082096;28;20036;-75
2022/12/13 09:38:51;;;;;;;2.70;2.30;;;8.30;96.70;;;;;;5081837;28;20051;-75
2022/12/13 09:41:25;;;;;;;3.03;2.20;;;8.30;96.70;;;;;;5078140;28;20044;-76
2022/12/13 09:44:00;;;;;;;3.60;2.00;;;8.30;96.70;;;;;;5061042;28;20401;-75
2022/12/13 09:46:32;;;;;;;3.28;1.98;;;8.30;96.70;;;;;;5061591;28;20418;-76
2022/12/13 09:49:16;;;;;;;3.40;2.17;;;8.30;96.70;;;;;;5076293;28;20040;-75
2022/12/13 09:51:54;;;;;;;2.83;1.92;;;8.30;96.70;;;;;;5081185;28;20131;-75
2022/12/13 09:54:41;;;;;;;4.47;2.10;;;8.30;96.70;;;;;;5081991;28;20105;-75
2022/12/13 09:57:19;;;;;;;4.38;2.58;;;8.30;96.70;;;;;;5075483;28;20152;-75
2022/12/13 10:00:03;;;;;;;3.50;2.20;;;8.30;96.70;;;;;;5082735;28;20044;-75
2022/12/13 10:02:42;;;;;;;3.03;2.20;;;8.40;96.70;;;;;;5083235;28;20406;-74
2022/12/13 10:05:21;;;;;;;4.43;2.75;;;8.40;96.70;;;;;;5066300;28;20418;-76
2022/12/13 10:08:07;;;;;;;3.25;2.13;;;8.40;96.70;;;;;;5082578;28;20094;-76
2022/12/13 10:10:37;;;;;;;3.45;2.65;;;8.50;96.70;;;;;;5082080;28;20048;-75
2022/12/13 10:13:15;;;;;;;3.45;2.72;;;8.50;96.70;;;;;;5082104;28;20137;-75
2022/12/13 10:15:50;;;;;;;2.65;2.10;;;8.60;96.70;;;;;;5082042;28;20051;-75
2022/12/13 10:18:30;;;;;;;3.15;2.33;;;8.60;96.70;;;;;;5083952;28;20101;-75
2022/12/13 10:20:59;;;;;;;3.53;2.25;;;8.60;96.70;;;;;;5074937;28;20056;-75
2022/12/13 10:23:27;;;;;;;3.25;2.63;;;8.60;96.70;;;;;;5082333;28;20487;-75
2022/12/13 10:26:17;;;;;;;2.95;2.50;;;8.60;96.70;;;;;;5081663;28;20036;-73
2022/12/13 10:29:01;;;;;;;16.52;11.50;;;8.60;96.70;;;;;;5064547;28;20135;-72
2022/12/13 10:31:37;;;;;;;6.28;4.20;;;8.70;96.70;;;;;;5066230;28;20048;-72
2022/12/13 10:34:15;;;;;;;6.30;3.93;;;8.70;96.70;;;;;;5082829;28;20054;-72
2022/12/13 10:36:44;;;;;;;5.70;4.03;;;8.70;96.70;;;;;;5097007;28;20052;-74
2022/12/13 10:39:17;;;;;;;2.97;2.60;;;8.70;96.70;;;;;;5081925;28;20052;-73
2022/12/13 10:41:47;;;;;;;3.38;2.17;;;8.80;96.70;;;;;;5081205;28;20512;-73
2022/12/13 10:44:21;;;;;;;2.78;1.75;;;8.80;96.70;;;;;;5082081;28;20133;-73
2022/12/13 10:47:05;;;;;;;3.00;1.77;;;8.80;96.70;;;;;;5080704;28;20044;-73
2022/12/13 10:49:39;;;;;;;2.42;1.77;;;8.80;96.70;;;;;;5080901;28;20059;-73
2022/12/13 10:52:25;;;;;;;2.13;1.52;;;8.80;96.70;;;;;;5081489;28;20137;-73
2022/12/13 10:55:01;;;;;;;1.85;1.50;;;8.80;96.70;;;;;;5081831;28;20519;-74
2022/12/13 10:57:32;;;;;;;2.55;1.70;;;8.80;96.70;;;;;;5083119;28;20457;-74
2022/12/13 11:00:00;;;;;;;2.78;2.00;;;8.70;96.70;;;;;;5081756;28;20044;-74
2022/12/13 11:02:32;;;;;;;3.13;1.70;;;8.70;96.70;;;;;;5081586;28;20070;-74
2022/12/13 11:05:23;;;;;;;2.00;1.50;;;8.70;96.70;;;;;;5081101;28;20052;-74
2022/12/13 11:07:51;;;;;;;2.15;1.73;;;8.70;96.70;;;;;;5098539;28;20561;-74
2022/12/13 11:10:23;;;;;;;2.53;1.80;;;8.60;96.70;;;;;;5081377;28;20428;-74
2022/12/13 11:13:01;;;;;;;3.20;1.80;;;8.60;96.70;;;;;;5064564;28;20145;-74
2022/12/13 11:15:31;;;;;;;3.47;2.00;;;8.60;96.70;;;;;;5081489;28;20060;-74
2022/12/13 11:18:03;;;;;;;3.35;2.58;;;8.60;96.70;;;;;;5083178;28;20062;-74
2022/12/13 11:20:34;;;;;;;3.97;2.20;;;8.60;96.70;;;;;;5081607;28;20039;-74
2022/12/13 11:23:06;;;;;;;3.78;2.38;;;8.60;96.70;;;;;;5082357;28;20151;-75
2022/12/13 11:25:39;;;;;;;3.25;2.50;;;8.60;96.70;;;;;;5081053;28;20547;-74
2022/12/13 11:28:26;;;;;;;4.55;2.58;;;8.60;96.70;;;;;;5080812;28;20129;-74
2022/12/13 11:31:02;;;;;;;;;;;8.60;96.70;;;;;;5083060;28;20097;-74
2022/12/13 11:33:40;;;;;;;3.15;2.40;;;8.60;96.70;;;;;;5072475;28;19982;-74
2022/12/13 11:36:25;;;;;;;3.78;2.30;;;8.60;96.70;;;;;;5080823;28;20079;-74
2022/12/13 11:39:05;;;;;;;4.90;3.08;;;8.70;96.70;;;;;;5080569;28;20109;-74
2022/12/13 11:41:38;;;;;;;5.38;2.95;;;8.70;96.70;;;;;;5079014;28;20044;-74
2022/12/13 11:44:14;;;;;;;3.42;2.47;;;8.80;96.70;;;;;;5080776;28;20046;-74
2022/12/13 11:46:45;;;;;;;2.97;2.10;;;8.80;96.70;;;;;;5081265;28;20063;-74
2022/12/13 11:49:18;;;;;;;3.90;2.47;;;8.70;96.70;;;;;;5080513;28;20035;-74
2022/12/13 11:51:52;;;;;;;3.80;2.70;;;8.70;96.70;;;;;;5080568;28;20071;-75
2022/12/13 11:54:27;;;;;;;4.38;2.97;;;8.80;96.70;;;;;;5081025;28;20043;-76
2022/12/13 11:56:57;;;;;;;2.13;1.90;;;8.70;96.70;;;;;;5080970;28;20456;-75
2022/12/13 11:59:38;;;;;;;5.38;3.22;;;8.70;96.70;;;;;;5080935;28;20047;-75
2022/12/13 12:02:15;;;;;;;6.80;4.30;;;8.60;96.70;;;;;;5085089;28;20082;-75
2022/12/13 12:04:47;;;;;;;5.72;3.22;;;8.70;96.70;;;;;;5081457;28;20648;-75
2022/12/13 12:07:26;;;;;;;4.55;3.20;;;8.80;96.70;;;;;;5085573;28;20571;-74
2022/12/13 12:10:14;;;;;;;3.58;2.75;;;8.80;96.70;;;;;;5077678;28;20121;-75
2022/12/13 12:12:49;;;;;;;4.50;2.25;;;8.80;96.70;;;;;;5084708;28;20122;-75
2022/12/13 12:15:24;;;;;;;2.35;1.92;;;8.80;96.70;;;;;;5084400;28;20060;-75
2022/12/13 12:17:53;;;;;;;;;;;8.80;96.70;;;;;;5078125;28;20055;-75
2022/12/13 12:20:37;;;;;;;3.03;2.33;;;8.80;96.70;;;;;;5086398;28;19924;-75
2022/12/13 12:23:12;;;;;;;3.15;2.63;;;8.80;96.70;;;;;;5085910;28;20113;-74
2022/12/13 12:25:46;;;;;;;3.75;2.50;;;8.70;96.70;;;;;;5076143;28;20047;-74
2022/12/13 12:28:26;;;;;;;2.75;2.35;;;8.70;96.70;;;;;;5084586;28;20048;-75
2022/12/13 12:31:06;;;;;;;7.38;5.28;;;8.60;96.70;;;;;;5084437;28;20169;-75
2022/12/13 12:33:42;;;;;;;7.50;5.07;;;8.60;96.70;;;;;;5083502;28;20135;-73
2022/12/13 12:36:23;;;;;;;4.70;3.13;;;8.70;96.70;;;;;;5085645;28;20568;-73
2022/12/13 12:39:13;;;;;;;4.18;3.28;;;8.70;96.70;;;;;;5067208;28;20048;-75
2022/12/13 12:41:53;;;;;;;4.55;3.53;;;8.70;96.70;;;;;;5082893;28;20052;-74
2022/12/13 12:44:37;;;;;;;3.28;2.50;;;8.80;96.70;;;;;;5083787;28;20434;-75
2022/12/13 12:47:18;;;;;;;2.83;1.95;;;8.80;96.70;;;;;;5066733;28;20471;-74
2022/12/13 12:50:31;;;;;;;1.92;1.40;;;8.80;96.70;;;;;;5084500;28;20299;-75
2022/12/13 12:53:12;;;;;;;1.98;1.40;;;8.80;96.70;;;;;;5083612;28;20133;-74
2022/12/13 12:55:50;;;;;;;3.33;2.40;;;8.90;96.70;;;;;;5084825;28;20056;-75
2022/12/13 12:58:26;;;;;;;2.63;1.90;;;8.90;96.70;;;;;;5082443;28;20504;-75
2022/12/13 13:01:09;;;;;;;1.90;1.60;;;9.00;96.70;;;;;;5083357;28;20043;-75
2022/12/13 13:03:41;;;;;;;3.50;2.25;;;9.00;96.70;;;;;;5083611;28;20051;-75
2022/12/13 13:06:13;;;;;;;3.75;2.88;;;9.00;96.70;;;;;;5085025;28;20044;-75
2022/12/13 13:08:46;;;;;;;3.85;2.33;;;9.00;96.70;;;;;;5066642;28;20048;-74
2022/12/13 13:11:26;;;;;;;3.20;2.25;;;9.10;96.70;;;;;;5082610;28;20059;-75
2022/12/13 13:14:05;;;;;;;3.40;2.90;;;9.10;96.70;;;;;;5083574;28;20067;-75
2022/12/13 13:16:37;;;;;;;4.40;2.33;;;9.10;96.70;;;;;;5084020;28;20052;-76
2022/12/13 13:19:40;;;;;;;3.25;2.45;;;9.00;96.70;;;;;;5083372;28;20044;-74
2022/12/13 13:22:27;;;;;;;4.38;3.33;;;9.10;96.70;;;;;;5066261;28;20052;-75
2022/12/13 13:25:22;;;;;;;3.25;2.50;;;9.10;96.70;;;;;;5082853;28;20101;-75
2022/12/13 13:27:51;;;;;;;2.50;1.73;;;9.10;96.70;;;;;;5082788;28;20048;-74
2022/12/13 13:30:22;;;;;;;3.55;2.20;;;9.10;96.70;;;;;;5076364;28;20826;-75
2022/12/13 13:32:52;;;;;;;2.58;1.83;;;9.10;96.70;;;;;;5083560;28;20048;-75
2022/12/13 13:35:53;;;;;;;2.60;1.92;;;9.10;96.70;;;;;;5083680;28;20496;-75
2022/12/13 13:38:52;;;;;;;3.10;2.00;;;9.10;96.70;;;;;;5066353;28;20059;-76